createdAt,value
2023-03-24T00:01:07.616Z,15.27
2023-03-24T00:06:13.740Z,15.23
2023-03-24T00:11:20.992Z,15.73
2023-03-24T00:16:24.861Z,17.33
2023-03-24T00:21:28.171Z,16.33
2023-03-24T00:26:32.503Z,15.60
2023-03-24T00:31:40.371Z,15.73
2023-03-24T00:36:43.417Z,16.02
2023-03-24T00:41:48.727Z,14.47
2023-03-24T00:46:55.775Z,14.20
2023-03-24T00:51:59.064Z,14.60
2023-03-24T00:57:03.895Z,14.52
2023-03-24T01:02:06.836Z,15.68
2023-03-24T01:07:10.958Z,15.00
2023-03-24T01:12:19.070Z,14.77
2023-03-24T01:17:22.818Z,13.75
2023-03-24T01:22:31.135Z,12.00
2023-03-24T01:27:35.449Z,13.37
2023-03-24T01:32:38.564Z,12.25
2023-03-24T01:37:41.740Z,12.18
2023-03-24T01:42:45.959Z,11.52
2023-03-24T01:47:49.167Z,12.55
2023-03-24T01:52:52.073Z,12.70
2023-03-24T01:57:58.299Z,10.93
2023-03-24T02:03:10.359Z,7.63
2023-03-24T02:08:24.669Z,7.43
2023-03-24T02:13:29.067Z,7.03
2023-03-24T02:18:44.807Z,7.15
2023-03-24T02:24:12.152Z,4.73
2023-03-24T02:29:48.494Z,4.50
2023-03-24T02:35:21.774Z,5.33
2023-03-24T02:40:31.786Z,5.53
2023-03-24T02:45:38.740Z,6.75
2023-03-24T02:50:44.297Z,5.95
2023-03-24T02:55:54.136Z,5.63
2023-03-24T03:00:59.643Z,5.73
2023-03-24T03:06:29.758Z,6.20
2023-03-24T03:11:34.040Z,5.75
2023-03-24T03:16:40.632Z,5.50
2023-03-24T03:21:45.551Z,5.88
2023-03-24T03:26:50.011Z,5.03
2023-03-24T03:32:00.999Z,5.47
2023-03-24T03:37:07.679Z,5.50
2023-03-24T03:42:11.962Z,5.50
2023-03-24T03:47:16.213Z,5.78
2023-03-24T03:52:22.223Z,5.90
2023-03-24T03:57:28.008Z,6.00
2023-03-24T04:03:05.359Z,5.60
2023-03-24T04:08:15.318Z,5.95
2023-03-24T04:13:37.540Z,6.15
2023-03-24T04:19:13.557Z,5.82
2023-03-24T04:24:26.889Z,5.90
2023-03-24T04:29:37.015Z,6.40
2023-03-24T04:34:42.259Z,5.50
2023-03-24T04:40:23.672Z,5.72
2023-03-24T04:45:27.900Z,6.82
2023-03-24T04:50:56.871Z,6.78
2023-03-24T04:56:27.353Z,6.00
2023-03-24T05:01:49.949Z,7.80
2023-03-24T05:07:15.486Z,7.40
2023-03-24T05:12:19.584Z,7.97
2023-03-24T05:17:42.902Z,8.23
2023-03-24T05:22:46.664Z,8.35
2023-03-24T05:27:50.249Z,8.98
2023-03-24T05:33:01.193Z,8.00
2023-03-24T05:38:04.618Z,8.87
2023-03-24T05:43:09.954Z,8.07
2023-03-24T05:48:18.203Z,8.48
2023-03-24T05:53:43.166Z,9.88
2023-03-24T05:58:51.462Z,9.37
2023-03-24T06:03:56.535Z,11.63
2023-03-24T06:09:02.461Z,11.00
2023-03-24T06:14:05.761Z,11.43
2023-03-24T06:19:22.593Z,12.82
2023-03-24T06:24:45.529Z,12.50
2023-03-24T06:29:48.697Z,12.18
2023-03-24T06:34:53.308Z,10.80
2023-03-24T06:40:22.343Z,11.73
2023-03-24T06:45:31.241Z,10.57
2023-03-24T06:50:35.895Z,11.15
2023-03-24T06:55:44.664Z,11.48
2023-03-24T07:00:50.402Z,11.63
2023-03-24T07:06:07.526Z,10.80
2023-03-24T07:11:10.613Z,9.83
2023-03-24T07:16:17.697Z,11.03
2023-03-24T07:21:24.034Z,10.82
2023-03-24T07:26:27.461Z,10.48
2023-03-24T07:31:38.781Z,11.13
2023-03-24T07:36:46.728Z,11.07
2023-03-24T07:41:52.722Z,10.43
2023-03-24T07:47:07.191Z,10.02
2023-03-24T07:52:11.550Z,10.63
2023-03-24T07:57:19.288Z,9.97
2023-03-24T08:02:22.590Z,12.43
2023-03-24T08:07:37.725Z,9.30
2023-03-24T08:12:40.690Z,10.60
2023-03-24T08:17:43.499Z,9.82
2023-03-24T08:22:49.724Z,9.90
2023-03-24T08:27:53.175Z,10.43
2023-03-24T08:32:57.676Z,9.50
2023-03-24T08:38:06.665Z,10.70
2023-03-24T08:43:15.088Z,10.23
2023-03-24T08:48:18.370Z,10.88
2023-03-24T08:53:22.639Z,9.52
2023-03-24T08:58:25.504Z,9.20
2023-03-24T09:03:28.736Z,10.23
2023-03-24T09:08:33.215Z,8.02
2023-03-24T09:13:36.062Z,9.60
2023-03-24T09:18:39.105Z,8.63
2023-03-24T09:23:43.360Z,7.30
2023-03-24T09:28:46.345Z,8.53
2023-03-24T09:33:49.248Z,8.18
2023-03-24T09:38:53.484Z,8.60
2023-03-24T09:43:59.788Z,6.95
2023-03-24T09:49:02.774Z,8.80
2023-03-24T09:54:13.693Z,7.70
2023-03-24T09:59:19.885Z,7.15
2023-03-24T10:04:26.247Z,7.83
2023-03-24T10:09:32.542Z,8.02
2023-03-24T10:14:48.771Z,7.55
2023-03-24T10:20:00.019Z,6.83
2023-03-24T10:25:09.236Z,7.20
2023-03-24T10:30:17.411Z,7.20
2023-03-24T10:35:22.906Z,6.93
2023-03-24T10:40:33.211Z,5.93
2023-03-24T10:45:39.516Z,6.30
2023-03-24T10:50:45.128Z,6.70
2023-03-24T10:55:50.743Z,6.67
2023-03-24T11:00:54.070Z,6.70
2023-03-24T11:06:01.340Z,7.47
2023-03-24T11:11:16.583Z,6.50
2023-03-24T11:16:19.812Z,7.30
2023-03-24T11:21:23.006Z,6.93
2023-03-24T11:26:31.701Z,6.30
2023-03-24T11:31:38.310Z,6.37
2023-03-24T11:36:46.864Z,6.28
2023-03-24T11:42:02.068Z,6.28
2023-03-24T11:47:09.506Z,6.10
2023-03-24T11:52:19.737Z,6.47
2023-03-24T11:57:35.071Z,6.57
2023-03-24T12:02:49.461Z,6.30
2023-03-24T12:08:02.026Z,5.10
2023-03-24T12:13:22.175Z,5.80
2023-03-24T12:18:44.322Z,5.93
2023-03-24T12:23:53.783Z,6.47
2023-03-24T12:29:10.614Z,4.40
2023-03-24T12:34:30.505Z,4.75
2023-03-24T12:39:37.330Z,3.67
2023-03-24T12:45:06.861Z,5.28
2023-03-24T12:50:25.639Z,4.78
2023-03-24T12:55:34.528Z,4.35
2023-03-24T13:00:42.496Z,5.03
2023-03-24T13:05:50.157Z,5.10
2023-03-24T13:10:54.567Z,4.57
2023-03-24T13:16:00.346Z,5.40
2023-03-24T13:21:05.714Z,5.10
2023-03-24T13:26:17.515Z,5.50
2023-03-24T13:31:23.021Z,6.25
2023-03-24T13:36:44.145Z,5.88
2023-03-24T13:41:51.097Z,5.73
2023-03-24T13:47:22.266Z,5.63
2023-03-24T13:52:29.850Z,5.13
2023-03-24T13:57:32.912Z,5.60
2023-03-24T14:02:47.022Z,5.82
2023-03-24T14:07:50.883Z,4.97
2023-03-24T14:12:54.592Z,6.20
2023-03-24T14:18:15.717Z,4.97
2023-03-24T14:23:24.972Z,5.18
2023-03-24T14:28:29.911Z,5.47
2023-03-24T14:33:34.164Z,5.70
2023-03-24T14:38:38.126Z,4.63
2023-03-24T14:43:55.925Z,6.53
2023-03-24T14:49:04.653Z,6.20
2023-03-24T14:54:13.539Z,7.80
2023-03-24T14:59:27.053Z,7.07
2023-03-24T15:04:33.603Z,6.25
2023-03-24T15:09:38.457Z,5.80
2023-03-24T15:14:41.427Z,4.78
2023-03-24T15:19:46.804Z,4.88
2023-03-24T15:24:51.169Z,5.33
2023-03-24T15:29:58.897Z,5.25
2023-03-24T15:35:06.544Z,5.30
2023-03-24T15:40:37.695Z,6.70
2023-03-24T15:45:51.015Z,4.68
2023-03-24T15:50:59.822Z,4.75
2023-03-24T15:56:07.121Z,4.97
2023-03-24T16:01:14.377Z,5.50
2023-03-24T16:06:29.575Z,5.90
2023-03-24T16:11:32.472Z,3.72
2023-03-24T16:16:38.661Z,4.55
2023-03-24T16:21:43.327Z,5.13
2023-03-24T16:26:46.501Z,5.20
2023-03-24T16:31:50.502Z,4.88
2023-03-24T16:36:56.111Z,6.13
2023-03-24T16:41:59.069Z,5.35
2023-03-24T16:47:02.051Z,4.68
2023-03-24T16:52:10.651Z,5.15
2023-03-24T16:57:13.641Z,5.10
2023-03-24T17:02:16.626Z,5.43
2023-03-24T17:07:20.976Z,6.15
2023-03-24T17:12:23.928Z,4.78
2023-03-24T17:17:26.924Z,4.30
2023-03-24T17:22:31.154Z,3.97
2023-03-24T17:27:34.098Z,4.80
2023-03-24T17:32:36.934Z,5.23
2023-03-24T17:37:41.864Z,4.28
2023-03-24T17:42:46.722Z,5.63
2023-03-24T17:47:49.738Z,4.78
2023-03-24T17:52:54.065Z,3.80
2023-03-24T17:57:56.995Z,3.40
2023-03-24T18:02:59.907Z,4.00
2023-03-24T18:08:04.219Z,3.67
2023-03-24T18:13:07.971Z,3.67
2023-03-24T18:18:11.153Z,3.07
2023-03-24T18:23:16.097Z,3.38
2023-03-24T18:28:18.904Z,3.22
2023-03-24T18:33:22.738Z,2.88
2023-03-24T18:38:26.936Z,3.95
2023-03-24T18:43:31.009Z,4.93
2023-03-24T18:48:33.864Z,4.87
2023-03-24T18:53:38.491Z,5.77
2023-03-24T18:58:43.235Z,8.63
2023-03-24T19:03:46.242Z,5.90
2023-03-24T19:08:53.329Z,7.30
2023-03-24T19:13:57.058Z,6.20
2023-03-24T19:19:00.259Z,6.87
2023-03-24T19:24:04.651Z,7.30
2023-03-24T19:29:07.509Z,6.35
2023-03-24T19:34:10.514Z,7.22
2023-03-24T19:39:14.766Z,6.53
2023-03-24T19:44:17.877Z,6.18
2023-03-24T19:49:21.359Z,7.10
2023-03-24T19:54:25.582Z,5.75
2023-03-24T19:59:28.465Z,6.82
2023-03-24T20:04:31.353Z,6.00
2023-03-24T20:09:35.852Z,6.53
2023-03-24T20:14:38.805Z,6.47
2023-03-24T20:19:41.701Z,7.60
2023-03-24T20:24:48.115Z,6.20
2023-03-24T20:29:51.018Z,7.10
2023-03-24T20:34:54.364Z,6.97
2023-03-24T20:39:59.306Z,6.30
2023-03-24T20:45:02.534Z,6.30
2023-03-24T20:50:06.907Z,6.47
2023-03-24T20:55:12.428Z,6.60
2023-03-24T21:00:15.995Z,6.30
2023-03-24T21:05:18.807Z,8.55
2023-03-24T21:10:23.162Z,6.88
2023-03-24T21:15:26.203Z,7.73
2023-03-24T21:20:30.752Z,6.93
2023-03-24T21:25:35.023Z,7.40
2023-03-24T21:30:38.107Z,7.30
2023-03-24T21:35:41.408Z,8.52
2023-03-24T21:40:46.491Z,8.17
2023-03-24T21:45:54.502Z,9.03
2023-03-24T21:50:58.729Z,8.43
2023-03-24T21:56:05.363Z,7.05
2023-03-24T22:01:08.826Z,8.82
2023-03-24T22:06:11.677Z,7.97
2023-03-24T22:11:18.654Z,7.43
2023-03-24T22:16:21.647Z,7.07
2023-03-24T22:21:24.504Z,7.45
2023-03-24T22:26:28.753Z,7.55
2023-03-24T22:31:31.567Z,6.87
2023-03-24T22:36:34.435Z,7.03
2023-03-24T22:41:38.706Z,8.00
2023-03-24T22:46:41.755Z,9.68
2023-03-24T22:51:44.714Z,8.38
2023-03-24T22:56:49.115Z,8.02
2023-03-24T23:02:02.387Z,9.10
2023-03-24T23:07:12.000Z,8.52
2023-03-24T23:12:16.390Z,9.70
2023-03-24T23:17:19.577Z,9.23
2023-03-24T23:22:23.077Z,8.93
2023-03-24T23:27:27.406Z,8.35
2023-03-24T23:32:33.586Z,9.27
2023-03-24T23:37:38.953Z,9.10
2023-03-24T23:42:45.352Z,9.05
2023-03-24T23:47:50.735Z,9.07
2023-03-24T23:52:53.603Z,10.75
2023-03-24T23:57:57.812Z,9.13
